createdAt,value
2023-05-13T00:01:23.720Z,72.99
2023-05-13T00:03:53.207Z,73.76
2023-05-13T00:06:22.534Z,74.29
2023-05-13T00:08:51.935Z,74.69
2023-05-13T00:11:21.202Z,74.84
2023-05-13T00:13:50.623Z,74.14
2023-05-13T00:16:19.978Z,74.47
2023-05-13T00:18:52.061Z,74.59
2023-05-13T00:21:21.660Z,75.18
2023-05-13T00:23:50.949Z,74.92
2023-05-13T00:26:20.452Z,74.48
2023-05-13T00:28:49.751Z,74.47
2023-05-13T00:31:19.091Z,74.64
2023-05-13T00:33:48.456Z,74.29
2023-05-13T00:36:20.325Z,74.11
2023-05-13T00:38:52.655Z,74.37
2023-05-13T00:41:21.994Z,74.68
2023-05-13T00:43:51.387Z,74.57
2023-05-13T00:46:20.869Z,74.08
2023-05-13T00:48:50.220Z,72.08
2023-05-13T00:51:22.157Z,72.30
2023-05-13T00:53:51.508Z,72.86
2023-05-13T00:56:21.850Z,72.83
2023-05-13T00:58:51.280Z,73.52
2023-05-13T01:01:22.510Z,73.56
2023-05-13T01:03:53.899Z,73.55
2023-05-13T01:06:26.874Z,73.54
2023-05-13T01:08:59.608Z,73.67
2023-05-13T01:11:30.414Z,73.20
2023-05-13T01:14:01.368Z,73.00
2023-05-13T01:16:31.958Z,73.75
2023-05-13T01:19:01.961Z,73.17
2023-05-13T01:21:34.041Z,73.09
2023-05-13T01:24:03.391Z,72.74
2023-05-13T01:26:32.777Z,73.44
2023-05-13T01:29:02.135Z,72.30
2023-05-13T01:31:31.478Z,73.73
2023-05-13T01:34:00.845Z,74.23
2023-05-13T01:36:30.221Z,74.08
2023-05-13T01:39:02.116Z,74.19
2023-05-13T01:41:31.404Z,74.13
2023-05-13T01:44:00.699Z,74.63
2023-05-13T01:46:30.513Z,74.63
2023-05-13T01:48:59.864Z,74.85
2023-05-13T01:51:29.161Z,74.78
2023-05-13T01:53:58.507Z,74.49
2023-05-13T01:56:30.528Z,74.22
2023-05-13T01:58:59.867Z,74.26
2023-05-13T02:01:29.217Z,74.05
2023-05-13T02:04:00.377Z,73.55
2023-05-13T02:06:30.350Z,73.59
2023-05-13T02:08:59.637Z,74.42
2023-05-13T02:11:31.495Z,74.74
2023-05-13T02:14:00.847Z,74.82
2023-05-13T02:16:30.201Z,73.97
2023-05-13T02:18:59.558Z,74.31
2023-05-13T02:21:28.884Z,73.71
2023-05-13T02:23:58.233Z,74.37
2023-05-13T02:26:27.811Z,74.54
2023-05-13T02:28:59.861Z,74.66
2023-05-13T02:31:29.211Z,73.96
2023-05-13T02:33:58.552Z,73.97
2023-05-13T02:36:27.932Z,74.51
2023-05-13T02:38:57.677Z,74.60
2023-05-13T02:41:27.059Z,74.92
2023-05-13T02:43:58.992Z,74.52
2023-05-13T02:46:28.370Z,74.31
2023-05-13T02:48:57.767Z,73.84
2023-05-13T02:51:27.095Z,73.67
2023-05-13T02:53:56.453Z,73.68
2023-05-13T02:56:26.268Z,72.87
2023-05-13T02:58:55.615Z,72.71
2023-05-13T03:01:27.843Z,71.63
2023-05-13T03:03:57.197Z,71.60
2023-05-13T03:06:26.726Z,70.54
2023-05-13T03:08:56.066Z,70.90
2023-05-13T03:11:26.888Z,69.15
2023-05-13T03:13:56.206Z,69.14
2023-05-13T03:16:28.136Z,67.94
2023-05-13T03:18:57.509Z,69.30
2023-05-13T03:21:26.855Z,70.16
2023-05-13T03:23:56.126Z,70.93
2023-05-13T03:26:26.182Z,71.28
2023-05-13T03:28:55.521Z,70.53
2023-05-13T03:31:25.134Z,71.00
2023-05-13T03:33:57.020Z,71.74
2023-05-13T03:36:26.628Z,71.93
2023-05-13T03:38:55.958Z,71.82
2023-05-13T03:41:25.255Z,71.70
2023-05-13T03:43:54.628Z,72.10
2023-05-13T03:46:24.226Z,71.30
2023-05-13T03:48:53.576Z,70.32
2023-05-13T03:51:25.437Z,70.37
2023-05-13T03:53:54.749Z,71.26
2023-05-13T03:56:24.329Z,71.49
2023-05-13T03:58:53.670Z,72.41
2023-05-13T04:01:23.027Z,72.58
2023-05-13T04:03:52.599Z,72.79
2023-05-13T04:06:21.930Z,72.56
2023-05-13T04:08:53.801Z,73.00
2023-05-13T04:11:23.122Z,72.08
2023-05-13T04:13:52.429Z,70.26
2023-05-13T04:16:22.735Z,70.94
2023-05-13T04:18:52.120Z,70.88
2023-05-13T04:21:21.500Z,70.76
2023-05-13T04:27:04.215Z,70.36
2023-05-13T04:29:33.513Z,70.99
2023-05-13T04:32:02.928Z,71.17
2023-05-13T04:34:32.366Z,71.91
2023-05-13T04:37:01.734Z,71.95
2023-05-13T04:39:31.017Z,71.98
2023-05-13T04:42:00.536Z,71.45
2023-05-13T04:44:32.483Z,70.74
2023-05-13T04:47:01.801Z,70.83
2023-05-13T04:49:31.197Z,69.60
2023-05-13T04:52:00.976Z,70.10
2023-05-13T04:54:30.341Z,69.75
2023-05-13T04:56:59.646Z,70.15
2023-05-13T04:59:28.956Z,70.67
2023-05-13T05:02:00.894Z,70.07
2023-05-13T05:04:30.236Z,70.68
2023-05-13T05:06:59.550Z,71.07
2023-05-13T05:09:30.206Z,71.25
2023-05-13T05:11:59.488Z,70.78
2023-05-13T05:14:28.920Z,70.94
2023-05-13T05:17:00.904Z,70.51
2023-05-13T05:19:30.276Z,69.20
2023-05-13T05:21:59.587Z,68.22
2023-05-13T05:24:28.873Z,69.05
2023-05-13T05:26:58.172Z,68.91
2023-05-13T05:29:27.653Z,68.50
2023-05-13T05:31:57.057Z,68.61
2023-05-13T05:34:29.070Z,67.35
2023-05-13T05:36:58.345Z,66.76
2023-05-13T05:39:27.651Z,66.36
2023-05-13T05:41:57.219Z,65.39
2023-05-13T05:44:26.579Z,64.48
2023-05-13T05:46:55.918Z,62.46
2023-05-13T05:49:25.211Z,62.32
2023-05-13T05:51:57.135Z,62.47
2023-05-13T05:54:26.441Z,61.75
2023-05-13T05:56:55.801Z,60.44
2023-05-13T05:59:25.123Z,60.30
2023-05-13T06:01:54.416Z,58.78
2023-05-13T06:04:24.970Z,55.73
2023-05-13T06:06:56.974Z,54.00
2023-05-13T06:09:26.310Z,55.67
2023-05-13T06:11:55.637Z,57.67
2023-05-13T06:14:24.916Z,58.88
2023-05-13T06:16:55.705Z,59.92
2023-05-13T06:19:25.283Z,60.17
2023-05-13T06:21:57.171Z,60.05
2023-05-13T06:24:26.455Z,60.20
2023-05-13T06:26:55.771Z,59.46
2023-05-13T06:29:25.081Z,59.97
2023-05-13T06:31:54.434Z,59.84
2023-05-13T06:34:23.752Z,59.96
2023-05-13T06:36:53.127Z,54.09
2023-05-13T06:39:25.410Z,46.77
2023-05-13T06:41:54.895Z,43.01
2023-05-13T06:44:24.215Z,43.73
2023-05-13T06:46:53.576Z,44.69
2023-05-13T06:49:24.712Z,42.26
2023-05-13T06:51:54.007Z,38.88
2023-05-13T06:54:27.765Z,36.08
2023-05-13T06:56:57.168Z,34.67
2023-05-13T06:59:26.711Z,33.84
2023-05-13T07:01:56.390Z,33.65
2023-05-13T07:04:25.985Z,37.47
2023-05-13T07:06:55.560Z,39.43
2023-05-13T07:09:27.940Z,41.98
2023-05-13T07:11:57.544Z,40.36
2023-05-13T07:14:27.113Z,38.30
2023-05-13T07:16:58.850Z,40.28
2023-05-13T07:19:28.441Z,39.13
2023-05-13T07:21:58.021Z,38.97
2023-05-13T07:24:30.113Z,36.80
2023-05-13T07:26:59.782Z,34.10
2023-05-13T07:29:29.323Z,32.07
2023-05-13T07:31:58.896Z,35.48
2023-05-13T07:34:28.444Z,34.52
2023-05-13T07:36:58.257Z,36.03
2023-05-13T07:39:30.349Z,36.67
2023-05-13T07:41:59.942Z,39.24
2023-05-13T07:44:30.086Z,40.04
2023-05-13T07:46:59.676Z,39.67
2023-05-13T07:49:29.407Z,36.02
2023-05-13T07:51:59.001Z,35.95
2023-05-13T07:54:31.255Z,36.66
2023-05-13T07:57:00.824Z,36.22
2023-05-13T07:59:30.417Z,34.48
2023-05-13T08:02:00.143Z,35.15
2023-05-13T08:04:29.750Z,34.64
2023-05-13T08:06:59.348Z,35.02
2023-05-13T08:09:31.486Z,36.42
2023-05-13T08:12:01.179Z,35.99
2023-05-13T08:14:30.772Z,36.39
2023-05-13T08:17:00.412Z,35.05
2023-05-13T08:19:29.979Z,35.68
2023-05-13T08:21:59.546Z,35.89
2023-05-13T08:24:31.671Z,35.21
2023-05-13T08:27:01.286Z,32.95
2023-05-13T08:29:30.851Z,34.90
2023-05-13T08:32:00.416Z,33.75
2023-05-13T08:34:30.062Z,29.30
2023-05-13T08:37:03.151Z,29.90
2023-05-13T08:39:35.348Z,31.77
2023-05-13T08:42:06.226Z,29.29
2023-05-13T08:44:35.536Z,28.27
2023-05-13T08:47:09.400Z,26.47
2023-05-13T08:49:38.974Z,25.34
2023-05-13T08:52:09.088Z,25.22
2023-05-13T08:54:41.682Z,24.53
2023-05-13T08:57:11.190Z,23.83
2023-05-13T08:59:40.907Z,22.14
2023-05-13T09:02:10.392Z,24.49
2023-05-13T09:04:41.446Z,24.15
2023-05-13T09:07:11.634Z,23.58
2023-05-13T09:09:44.552Z,22.74
2023-05-13T09:12:14.115Z,25.45
2023-05-13T09:14:43.786Z,24.33
2023-05-13T09:17:13.360Z,24.02
2023-05-13T09:19:43.045Z,29.27
2023-05-13T09:22:20.111Z,31.89
2023-05-13T09:24:58.872Z,35.90
2023-05-13T09:27:38.577Z,36.61
2023-05-13T09:30:09.940Z,37.19
2023-05-13T09:32:39.509Z,39.41
2023-05-13T09:35:18.306Z,38.93
2023-05-13T09:37:48.233Z,39.73
2023-05-13T09:40:20.846Z,39.99
2023-05-13T09:42:50.613Z,40.84
2023-05-13T09:45:20.827Z,38.63
2023-05-13T09:47:53.851Z,39.73
2023-05-13T09:50:24.024Z,40.05
2023-05-13T09:52:53.877Z,39.42
2023-05-13T09:55:26.223Z,44.54
2023-05-13T09:57:56.413Z,45.76
2023-05-13T10:00:32.582Z,48.20
2023-05-13T10:03:02.492Z,47.41
2023-05-13T10:05:32.278Z,44.27
2023-05-13T10:08:02.016Z,44.48
2023-05-13T10:10:35.181Z,42.02
2023-05-13T10:13:07.370Z,39.24
2023-05-13T10:15:37.398Z,36.63
2023-05-13T10:18:07.774Z,35.86
2023-05-13T10:20:37.385Z,34.85
2023-05-13T10:23:07.055Z,29.88
2023-05-13T10:25:39.316Z,24.82
2023-05-13T10:28:09.000Z,23.18
2023-05-13T10:30:38.589Z,22.96
2023-05-13T10:33:08.174Z,24.43
2023-05-13T10:35:42.643Z,26.57
2023-05-13T10:38:12.885Z,29.57
2023-05-13T10:41:04.783Z,30.32
2023-05-13T10:43:34.936Z,33.79
2023-05-13T10:46:05.145Z,35.80
2023-05-13T10:48:41.638Z,35.68
2023-05-13T10:51:11.803Z,34.27
2023-05-13T10:53:47.405Z,36.26
2023-05-13T10:56:20.030Z,36.65
2023-05-13T10:59:00.284Z,36.05
2023-05-13T11:01:31.211Z,36.16
2023-05-13T11:04:01.983Z,34.31
2023-05-13T11:06:33.129Z,35.81
2023-05-13T11:09:02.638Z,36.25
2023-05-13T11:11:37.808Z,38.03
2023-05-13T11:14:20.880Z,36.60
2023-05-13T11:16:51.994Z,36.12
2023-05-13T11:19:22.726Z,36.23
2023-05-13T11:21:54.501Z,37.61
2023-05-13T11:24:24.453Z,35.45
2023-05-13T11:26:57.972Z,35.37
2023-05-13T11:29:31.919Z,37.31
2023-05-13T11:32:01.785Z,35.70
2023-05-13T11:34:31.729Z,35.07
2023-05-13T11:37:10.462Z,34.69
2023-05-13T11:39:41.964Z,36.96
2023-05-13T11:42:14.209Z,33.24
2023-05-13T11:44:48.239Z,35.44
2023-05-13T11:47:17.800Z,32.62
2023-05-13T11:49:47.923Z,32.86
2023-05-13T11:52:18.544Z,30.99
2023-05-13T11:54:49.343Z,33.04
2023-05-13T11:57:24.549Z,32.53
2023-05-13T11:59:55.401Z,31.03
2023-05-13T12:02:25.221Z,31.55
2023-05-13T12:04:55.483Z,32.39
2023-05-13T12:07:26.002Z,31.54
2023-05-13T12:09:56.001Z,32.77
2023-05-13T12:12:28.394Z,35.97
2023-05-13T12:14:58.802Z,34.87
2023-05-13T12:17:28.536Z,31.98
2023-05-13T12:20:08.503Z,28.53
2023-05-13T12:22:38.491Z,31.11
2023-05-13T12:25:38.262Z,32.19
2023-05-13T12:28:17.278Z,34.43
2023-05-13T12:30:51.748Z,31.83
2023-05-13T12:33:22.255Z,34.13
2023-05-13T12:35:52.721Z,31.90
2023-05-13T12:38:24.066Z,33.37
2023-05-13T12:40:54.917Z,34.04
2023-05-13T12:43:27.088Z,35.13
2023-05-13T12:45:57.625Z,35.40
2023-05-13T12:48:27.906Z,35.87
2023-05-13T12:50:59.541Z,38.08
2023-05-13T12:53:30.253Z,38.62
2023-05-13T12:55:59.951Z,39.30
2023-05-13T12:58:32.076Z,38.33
2023-05-13T13:01:01.647Z,38.94
2023-05-13T13:03:31.479Z,39.43
2023-05-13T13:06:01.105Z,39.11
2023-05-13T13:08:30.898Z,37.85
2023-05-13T13:11:01.816Z,37.60
2023-05-13T13:13:33.728Z,37.56
2023-05-13T13:16:03.349Z,37.66
2023-05-13T13:18:33.051Z,35.90
2023-05-13T13:21:02.679Z,36.94
2023-05-13T13:23:32.252Z,37.92
2023-05-13T13:26:01.819Z,37.98
2023-05-13T13:28:34.393Z,38.51
2023-05-13T13:31:03.976Z,37.35
2023-05-13T13:33:33.541Z,35.33
2023-05-13T13:36:03.057Z,34.49
2023-05-13T13:38:32.642Z,32.93
2023-05-13T13:41:02.308Z,32.62
2023-05-13T13:43:34.451Z,34.99
2023-05-13T13:46:04.055Z,33.73
2023-05-13T13:48:33.786Z,35.78
2023-05-13T13:51:03.321Z,36.02
2023-05-13T13:53:32.855Z,37.51
2023-05-13T13:56:02.427Z,36.72
2023-05-13T13:58:34.560Z,39.15
2023-05-13T14:01:04.164Z,40.06
2023-05-13T14:03:33.823Z,39.53
2023-05-13T14:06:03.392Z,42.92
2023-05-13T14:08:32.887Z,46.31
2023-05-13T14:11:02.622Z,48.20
2023-05-13T14:13:34.742Z,49.35
2023-05-13T14:16:04.441Z,54.77
2023-05-13T14:18:34.092Z,53.44
2023-05-13T14:21:03.694Z,53.18
2023-05-13T14:23:33.264Z,53.63
2023-05-13T14:26:02.834Z,51.29
2023-05-13T14:28:35.026Z,51.47
2023-05-13T14:31:04.593Z,46.64
2023-05-13T14:33:34.183Z,44.07
2023-05-13T14:36:03.757Z,42.41
2023-05-13T14:38:33.314Z,41.39
2023-05-13T14:41:02.861Z,39.73
2023-05-13T14:43:34.978Z,39.72
2023-05-13T14:46:04.893Z,40.57
2023-05-13T14:48:34.480Z,41.39
2023-05-13T14:51:04.025Z,39.93
2023-05-13T14:53:33.577Z,40.43
2023-05-13T14:56:03.106Z,40.42
2023-05-13T14:58:35.257Z,39.82
2023-05-13T15:01:04.861Z,40.71
2023-05-13T15:03:34.553Z,40.13
2023-05-13T15:06:04.530Z,40.94
2023-05-13T15:08:34.163Z,41.05
2023-05-13T15:11:03.715Z,41.36
2023-05-13T15:13:37.014Z,40.01
2023-05-13T15:16:07.171Z,39.90
2023-05-13T15:18:36.739Z,39.52
2023-05-13T15:21:06.546Z,40.19
2023-05-13T15:23:36.449Z,36.99
2023-05-13T15:26:06.145Z,36.05
2023-05-13T15:28:38.292Z,37.13
2023-05-13T15:31:08.169Z,36.84
2023-05-13T15:33:37.803Z,35.86
2023-05-13T15:36:10.018Z,36.41
2023-05-13T15:38:39.588Z,37.03
2023-05-13T15:41:09.408Z,37.55
2023-05-13T15:43:41.509Z,37.70
2023-05-13T15:46:11.124Z,37.66
2023-05-13T15:48:40.952Z,37.01
2023-05-13T15:51:10.485Z,36.88
2023-05-13T15:53:40.021Z,36.90
2023-05-13T15:56:09.973Z,38.54
2023-05-13T15:58:42.131Z,36.35
2023-05-13T16:01:11.691Z,36.16
2023-05-13T16:03:41.278Z,36.43
2023-05-13T16:06:10.854Z,36.88
2023-05-13T16:08:40.505Z,35.79
2023-05-13T16:11:11.955Z,35.46
2023-05-13T16:13:44.762Z,34.88
2023-05-13T16:16:14.391Z,35.06
2023-05-13T16:18:44.043Z,36.42
2023-05-13T16:21:13.646Z,35.40
2023-05-13T16:23:43.260Z,36.14
2023-05-13T16:26:12.795Z,36.15
2023-05-13T16:28:45.077Z,36.91
2023-05-13T16:31:14.648Z,35.98
2023-05-13T16:33:44.206Z,36.81
2023-05-13T16:36:14.060Z,36.31
2023-05-13T16:38:44.029Z,36.07
2023-05-13T16:41:13.713Z,35.78
2023-05-13T16:43:46.083Z,35.16
2023-05-13T16:46:17.528Z,36.00
2023-05-13T16:48:47.480Z,35.92
2023-05-13T16:51:17.056Z,35.88
2023-05-13T16:53:46.619Z,37.48
2023-05-13T16:56:16.784Z,38.23
2023-05-13T16:58:48.892Z,38.01
2023-05-13T17:01:18.499Z,37.29
2023-05-13T17:03:48.151Z,36.90
2023-05-13T17:06:17.734Z,37.11
2023-05-13T17:08:47.254Z,36.97
2023-05-13T17:11:18.714Z,37.17
2023-05-13T17:13:51.370Z,36.79
2023-05-13T17:16:21.004Z,38.51
2023-05-13T17:18:50.624Z,37.52
2023-05-13T17:21:20.226Z,37.40
2023-05-13T17:23:49.806Z,37.06
2023-05-13T17:26:19.349Z,37.30
2023-05-13T17:28:51.520Z,37.74
2023-05-13T17:31:21.088Z,38.08
2023-05-13T17:33:50.676Z,36.94
2023-05-13T17:36:20.287Z,36.53
2023-05-13T17:38:50.765Z,36.07
2023-05-13T17:41:20.356Z,37.09
2023-05-13T17:43:52.486Z,36.84
2023-05-13T17:46:22.042Z,38.16
2023-05-13T17:48:51.758Z,37.84
2023-05-13T17:51:21.382Z,38.12
2023-05-13T17:53:50.931Z,38.67
2023-05-13T17:56:21.504Z,39.88
2023-05-13T17:58:53.610Z,38.83
2023-05-13T18:01:23.292Z,38.90
2023-05-13T18:03:52.830Z,39.01
2023-05-13T18:06:22.384Z,39.28
2023-05-13T18:08:51.945Z,39.27
2023-05-13T18:11:22.181Z,42.84
2023-05-13T18:13:54.359Z,42.54
2023-05-13T18:16:23.947Z,42.05
2023-05-13T18:18:53.589Z,43.33
2023-05-13T18:21:24.356Z,42.93
2023-05-13T18:23:53.894Z,43.20
2023-05-13T18:26:23.713Z,43.58
2023-05-13T18:28:55.983Z,43.18
2023-05-13T18:31:25.646Z,43.62
2023-05-13T18:33:55.209Z,43.90
2023-05-13T18:36:24.736Z,45.02
2023-05-13T18:38:54.439Z,45.26
2023-05-13T18:41:24.063Z,45.47
2023-05-13T18:43:56.218Z,46.86
2023-05-13T18:46:26.119Z,47.36
2023-05-13T18:48:55.678Z,47.94
2023-05-13T18:51:25.260Z,47.79
2023-05-13T18:53:54.989Z,47.16
2023-05-13T18:56:24.604Z,47.22
2023-05-13T18:58:57.247Z,46.98
2023-05-13T19:01:26.846Z,46.10
2023-05-13T19:03:56.842Z,46.39
2023-05-13T19:06:26.508Z,46.61
2023-05-13T19:08:56.146Z,47.04
2023-05-13T19:11:26.303Z,46.94
2023-05-13T19:13:58.474Z,46.37
2023-05-13T19:16:28.559Z,46.44
2023-05-13T19:18:58.191Z,46.54
2023-05-13T19:21:27.778Z,47.06
2023-05-13T19:23:58.847Z,47.30
2023-05-13T19:26:28.572Z,47.43
2023-05-13T19:29:00.865Z,47.96
2023-05-13T19:31:31.772Z,47.57
2023-05-13T19:34:01.500Z,47.53
2023-05-13T19:36:31.256Z,48.36
2023-05-13T19:39:00.930Z,48.21
2023-05-13T19:41:30.524Z,48.02
2023-05-13T19:44:02.655Z,48.35
2023-05-13T19:46:32.385Z,48.62
2023-05-13T19:49:01.993Z,49.28
2023-05-13T19:51:31.803Z,50.21
2023-05-13T19:54:01.987Z,50.00
2023-05-13T19:56:31.691Z,49.74
2023-05-13T19:59:03.825Z,50.68
2023-05-13T20:01:34.055Z,51.48
2023-05-13T20:04:03.712Z,51.42
2023-05-13T20:06:33.476Z,51.74
2023-05-13T20:09:03.590Z,50.32
2023-05-13T20:11:33.135Z,51.63
2023-05-13T20:14:05.452Z,52.18
2023-05-13T20:16:34.995Z,52.69
2023-05-13T20:19:04.633Z,53.14
2023-05-13T20:21:34.606Z,52.89
2023-05-13T20:24:04.276Z,52.54
2023-05-13T20:26:35.137Z,52.93
2023-05-13T20:29:08.313Z,52.37
2023-05-13T20:31:42.554Z,53.37
2023-05-13T20:34:12.138Z,52.74
2023-05-13T20:36:41.746Z,53.43
2023-05-13T20:39:11.338Z,53.60
2023-05-13T20:41:41.104Z,53.61
2023-05-13T20:44:15.958Z,54.11
2023-05-13T20:46:45.597Z,53.95
2023-05-13T20:49:15.146Z,54.75
2023-05-13T20:51:45.018Z,54.59
2023-05-13T20:54:14.887Z,54.83
2023-05-13T20:56:44.518Z,54.99
2023-05-13T20:59:16.620Z,54.69
2023-05-13T21:01:47.621Z,54.64
2023-05-13T21:04:17.399Z,54.76
2023-05-13T21:06:47.030Z,55.53
2023-05-13T21:09:16.644Z,55.10
2023-05-13T21:11:46.308Z,55.23
2023-05-13T21:14:18.459Z,54.61
2023-05-13T21:16:48.009Z,53.45
2023-05-13T21:19:24.131Z,53.36
2023-05-13T21:21:53.756Z,54.35
2023-05-13T21:24:23.431Z,55.63
2023-05-13T21:26:53.949Z,54.87
2023-05-13T21:29:26.117Z,55.16
2023-05-13T21:31:55.681Z,55.11
2023-05-13T21:34:25.327Z,56.53
2023-05-13T21:36:54.942Z,57.23
2023-05-13T21:39:24.512Z,56.82
2023-05-13T21:41:54.213Z,57.02
2023-05-13T21:44:26.903Z,57.01
2023-05-13T21:46:56.418Z,57.36
2023-05-13T21:49:26.380Z,57.00
2023-05-13T21:51:55.964Z,56.54
2023-05-13T21:54:25.519Z,56.58
2023-05-13T21:56:55.079Z,56.55
2023-05-13T21:59:27.309Z,57.07
2023-05-13T22:01:56.911Z,56.76
2023-05-13T22:04:26.912Z,57.24
2023-05-13T22:06:56.726Z,57.66
2023-05-13T22:09:26.261Z,58.03
2023-05-13T22:11:55.866Z,58.52
2023-05-13T22:14:28.071Z,57.62
2023-05-13T22:17:08.429Z,57.78
2023-05-13T22:19:39.652Z,58.30
2023-05-13T22:22:09.343Z,57.94
2023-05-13T22:24:38.930Z,58.13
2023-05-13T22:27:08.941Z,58.71
2023-05-13T22:29:41.080Z,58.84
2023-05-13T22:32:11.226Z,58.90
2023-05-13T22:34:40.888Z,59.64
2023-05-13T22:37:10.428Z,58.93
2023-05-13T22:39:40.009Z,59.07
2023-05-13T22:42:10.269Z,59.09
2023-05-13T22:44:42.417Z,58.39
2023-05-13T22:47:11.997Z,57.90
2023-05-13T22:49:41.655Z,57.55
2023-05-13T22:52:11.286Z,58.05
2023-05-13T22:54:41.673Z,58.25
2023-05-13T22:57:11.327Z,59.10
2023-05-13T22:59:43.481Z,59.03
2023-05-13T23:02:13.070Z,59.16
2023-05-13T23:04:42.711Z,59.76
2023-05-13T23:07:12.281Z,60.03
2023-05-13T23:09:41.990Z,59.72
2023-05-13T23:12:11.669Z,60.05
2023-05-13T23:14:43.854Z,59.69
2023-05-13T23:17:13.482Z,60.29
2023-05-13T23:19:43.058Z,59.50
2023-05-13T23:22:12.731Z,59.86
2023-05-13T23:24:42.288Z,59.91
2023-05-13T23:27:11.935Z,58.50
2023-05-13T23:29:44.166Z,59.46
2023-05-13T23:32:13.943Z,59.70
2023-05-13T23:34:43.573Z,60.00
2023-05-13T23:37:15.728Z,59.95
2023-05-13T23:39:45.290Z,60.22
2023-05-13T23:42:14.899Z,59.81
2023-05-13T23:44:47.068Z,59.96
2023-05-13T23:47:16.870Z,60.97
2023-05-13T23:49:46.537Z,60.94
2023-05-13T23:52:16.111Z,61.15
2023-05-13T23:54:45.706Z,60.57
2023-05-13T23:57:15.355Z,61.36
2023-05-13T23:59:47.501Z,61.48
